Urb Turnkey, Puerto Rico
Current Conditions -  °F | °C
As of 3:50 PM on Saturday 25 Oct 2014 (Local Time) from TJBQ Reporting Station
Scattered Clouds Scattered Clouds  
Wind Chill: 84°   Ceiling: Unl
Heat Index: 91°   Visibility: 10mi
Dew Point: 73°   Wind: 5mph
Humidity: 70%   Direction: 80°E
Pressure: 29.87"   Gusts: NA
Location:  18.0306°N, 66.8507°W
Report Text: TJBQ 251950Z 08004KT 10SM SCT060 29/23 A2987 RMK RWY08 - ATIS X
Loading
Personal Weather Stations






























Interactive Weather Map
Tropical Storm Tracking
New forecast layout! Learn more

10-Day Weather Forecast

Advertisements
Track Severe Weather on mobile